Time;durP1;ratioP1;P1;durP2;ratioP2;P2;SDS_P1;SDS_P2;PMS_P1;PMS_P2;Temp;Humidity;BMP_temperature;BMP_pressure;BME280_temperature;BME280_humidity;BME280_pressure;Samples;Min_cycle;Max_cycle;Signal;HPM_P1;HPM_P2
2023/12/18 00:01:26;;;;;;;48.80;17.92;;;5.70;99.90;;;;;;5019668;28;20079;-72
2023/12/18 00:03:51;;;;;;;51.40;17.77;;;5.70;99.90;;;;;;5018880;28;20075;-73
2023/12/18 00:06:17;;;;;;;56.95;18.85;;;5.80;99.90;;;;;;5019747;28;20105;-72
2023/12/18 00:08:42;;;;;;;46.22;16.52;;;5.70;99.90;;;;;;5019558;28;20048;-73
2023/12/18 00:11:08;;;;;;;43.70;17.02;;;5.80;99.90;;;;;;5018674;28;20121;-73
2023/12/18 00:13:33;;;;;;;54.10;16.83;;;5.80;99.90;;;;;;5018537;28;20106;-73
2023/12/18 00:15:59;;;;;;;43.38;16.77;;;5.80;99.90;;;;;;5018713;28;20026;-73
2023/12/18 00:18:24;;;;;;;45.83;16.15;;;5.80;99.90;;;;;;5019208;28;20014;-73
2023/12/18 00:20:52;;;;;;;41.13;15.85;;;5.70;99.90;;;;;;5018474;28;20022;-72
2023/12/18 00:23:18;;;;;;;45.80;16.23;;;5.50;99.90;;;;;;5019592;28;20104;-73
2023/12/18 00:25:43;;;;;;;55.65;16.20;;;5.40;99.90;;;;;;5018408;28;20101;-73
2023/12/18 00:28:09;;;;;;;88.72;21.55;;;5.40;99.90;;;;;;5019810;28;20105;-73
2023/12/18 00:30:34;;;;;;;57.35;17.25;;;5.10;99.90;;;;;;5018480;28;20033;-73
2023/12/18 00:33:01;;;;;;;77.97;17.60;;;4.90;99.90;;;;;;5019326;28;20022;-73
2023/12/18 00:35:26;;;;;;;45.80;16.23;;;4.90;99.90;;;;;;5018032;28;20112;-73
2023/12/18 00:37:52;;;;;;;63.58;18.73;;;5.00;99.90;;;;;;5018260;28;20105;-73
2023/12/18 00:40:17;;;;;;;49.55;17.02;;;5.10;99.90;;;;;;5019092;28;20021;-73
2023/12/18 00:42:43;;;;;;;50.75;17.92;;;5.20;99.90;;;;;;5020323;28;20034;-72
2023/12/18 00:45:08;;;;;;;54.85;17.27;;;5.30;99.90;;;;;;5018080;28;20149;-73
2023/12/18 00:47:34;;;;;;;47.58;17.90;;;5.40;99.90;;;;;;5018015;28;20030;-73
2023/12/18 00:49:59;;;;;;;62.38;17.63;;;5.40;99.90;;;;;;5017348;28;20026;-73
2023/12/18 00:52:25;;;;;;;48.38;18.05;;;5.40;99.90;;;;;;5018776;28;20036;-73
2023/12/18 00:54:50;;;;;;;53.47;16.55;;;5.50;99.90;;;;;;5017829;28;20076;-73
2023/12/18 00:57:16;;;;;;;46.95;15.55;;;5.50;99.90;;;;;;5017851;28;20026;-73
2023/12/18 00:59:41;;;;;;;72.63;18.42;;;5.60;99.90;;;;;;5018553;28;20094;-73
2023/12/18 01:02:07;;;;;;;45.50;17.00;;;5.50;99.90;;;;;;5018392;28;20057;-73
2023/12/18 01:04:32;;;;;;;48.08;15.75;;;5.50;99.90;;;;;;5017953;28;20029;-73
2023/12/18 01:06:58;;;;;;;45.15;16.35;;;5.60;99.90;;;;;;5017977;28;20029;-73
2023/12/18 01:09:24;;;;;;;51.63;16.10;;;5.50;99.90;;;;;;5017702;28;20121;-73
2023/12/18 01:11:50;;;;;;;54.10;17.30;;;5.30;99.90;;;;;;5017507;28;20026;-73
2023/12/18 01:14:15;;;;;;;52.03;16.40;;;5.40;99.90;;;;;;5017826;28;20084;-73
2023/12/18 01:16:42;;;;;;;50.95;17.48;;;5.40;99.90;;;;;;5017810;28;20044;-73
2023/12/18 01:19:07;;;;;;;44.58;16.40;;;5.40;99.90;;;;;;5017441;28;20045;-73
2023/12/18 01:21:33;;;;;;;46.70;15.13;;;5.50;99.90;;;;;;5018239;28;20033;-73
2023/12/18 01:23:59;;;;;;;77.25;21.00;;;5.50;99.90;;;;;;5018202;28;20036;-73
2023/12/18 01:26:25;;;;;;;44.85;15.38;;;5.10;99.90;;;;;;5017648;28;20104;-73
2023/12/18 01:28:50;;;;;;;46.22;17.20;;;4.90;99.90;;;;;;5017513;28;20030;-73
2023/12/18 01:31:23;;;;;;;51.60;15.32;;;5.10;99.90;;;;;;5017316;28;20048;-73
2023/12/18 01:33:49;;;;;;;53.83;15.45;;;5.10;99.90;;;;;;5018070;28;20080;-73
2023/12/18 01:36:14;;;;;;;46.60;16.02;;;5.30;99.90;;;;;;5017381;28;20026;-73
2023/12/18 01:38:40;;;;;;;55.58;15.45;;;5.30;99.90;;;;;;5017042;28;20109;-73
2023/12/18 01:41:05;;;;;;;45.70;14.85;;;5.30;99.90;;;;;;5018498;28;20048;-73
2023/12/18 01:43:31;;;;;;;41.08;15.45;;;5.30;99.90;;;;;;5016844;28;20026;-73
2023/12/18 01:45:58;;;;;;;46.95;15.18;;;5.20;99.90;;;;;;5016999;28;20025;-73
2023/12/18 01:48:26;;;;;;;41.67;15.43;;;5.30;99.90;;;;;;5017753;28;20025;-73
2023/12/18 01:50:55;;;;;;;43.63;15.75;;;5.40;99.90;;;;;;5016791;28;20018;-73
2023/12/18 01:53:27;;;;;;;44.75;14.48;;;5.50;99.90;;;;;;5016713;28;20155;-73
2023/12/18 01:55:53;;;;;;;46.08;15.45;;;5.40;99.90;;;;;;5017665;28;20025;-73
2023/12/18 01:58:19;;;;;;;34.40;13.25;;;5.50;99.90;;;;;;5016807;28;20025;-73
2023/12/18 02:00:45;;;;;;;41.72;15.10;;;5.60;99.90;;;;;;5017527;28;20049;-73
2023/12/18 02:03:12;;;;;;;42.08;15.60;;;5.60;99.90;;;;;;5017528;28;20030;-73
2023/12/18 02:05:39;;;;;;;37.75;13.77;;;5.60;99.90;;;;;;5017653;28;20033;-73
2023/12/18 02:08:06;;;;;;;40.88;13.02;;;5.40;99.90;;;;;;5018402;28;20034;-73
2023/12/18 02:10:32;;;;;;;47.85;14.60;;;5.60;99.90;;;;;;5017687;28;20030;-73
2023/12/18 02:12:57;;;;;;;39.50;13.32;;;5.50;99.90;;;;;;5017736;28;20032;-73
2023/12/18 02:15:23;;;;;;;38.08;14.75;;;5.50;99.90;;;;;;5016451;28;20025;-73
2023/12/18 02:17:48;;;;;;;37.38;12.93;;;5.40;99.90;;;;;;5017585;28;20018;-73
2023/12/18 02:20:14;;;;;;;36.78;12.98;;;5.30;99.90;;;;;;5016433;28;20088;-73
2023/12/18 02:22:46;;;;;;;43.35;15.55;;;5.30;99.90;;;;;;5016466;28;20079;-73
2023/12/18 02:25:12;;;;;;;;;;;5.30;99.90;;;;;;5017077;28;20112;-73
2023/12/18 02:27:38;;;;;;;45.28;13.80;;;5.20;99.90;;;;;;5017243;28;19951;-73
2023/12/18 02:30:04;;;;;;;69.35;16.40;;;4.90;99.90;;;;;;5017172;28;20057;-73
2023/12/18 02:32:30;;;;;;;88.28;18.92;;;4.40;99.90;;;;;;5017169;28;20060;-73
2023/12/18 02:34:55;;;;;;;55.80;15.98;;;4.10;99.90;;;;;;5016251;28;20053;-73
2023/12/18 02:37:23;;;;;;;70.05;16.50;;;4.00;99.90;;;;;;5016518;28;20117;-73
2023/12/18 02:39:49;;;;;;;43.47;15.35;;;4.00;99.90;;;;;;5017462;28;20022;-73
2023/12/18 02:42:14;;;;;;;45.22;14.27;;;4.20;99.90;;;;;;5016516;28;20029;-73
2023/12/18 02:44:40;;;;;;;65.97;16.10;;;4.30;99.90;;;;;;5041294;22;20046;-68
2023/12/18 02:47:05;;;;;;;56.50;16.85;;;4.20;99.90;;;;;;5016542;28;20033;-68
2023/12/18 02:49:31;;;;;;;41.80;13.02;;;4.30;99.90;;;;;;5032730;28;20025;-68
2023/12/18 02:51:56;;;;;;;58.88;14.90;;;4.40;99.90;;;;;;5016059;28;20022;-63
2023/12/18 02:54:22;;;;;;;36.25;13.55;;;4.60;99.90;;;;;;5033020;28;20025;-63
2023/12/18 02:56:47;;;;;;;34.65;12.55;;;4.70;99.90;;;;;;5032569;28;20021;-63
2023/12/18 02:59:13;;;;;;;34.30;13.25;;;4.70;99.90;;;;;;5033576;28;20095;-63
2023/12/18 03:01:38;;;;;;;32.45;12.30;;;4.80;99.90;;;;;;5032558;28;20022;-63
2023/12/18 03:04:04;;;;;;;47.45;13.40;;;4.70;99.90;;;;;;5015945;28;20018;-65
2023/12/18 03:06:29;;;;;;;37.78;12.32;;;4.40;99.90;;;;;;5017034;28;20050;-66
2023/12/18 03:08:55;;;;;;;28.52;10.82;;;4.50;99.90;;;;;;5016795;28;20113;-66
2023/12/18 03:11:20;;;;;;;27.30;10.63;;;4.50;99.90;;;;;;5016754;28;20034;-66
2023/12/18 03:13:46;;;;;;;29.70;9.30;;;4.80;99.90;;;;;;5019470;28;20018;-66
2023/12/18 03:16:12;;;;;;;44.55;10.25;;;4.90;99.90;;;;;;5019620;28;20018;-66
2023/12/18 03:18:37;;;;;;;43.67;10.50;;;5.00;99.90;;;;;;5020547;28;20030;-66
2023/12/18 03:21:03;;;;;;;60.53;11.77;;;4.80;99.90;;;;;;5019647;28;20029;-66
2023/12/18 03:23:29;;;;;;;49.83;11.60;;;4.60;99.90;;;;;;5036013;28;20022;-66
2023/12/18 03:25:54;;;;;;;38.42;10.15;;;4.60;99.90;;;;;;5020630;28;20026;-65
2023/12/18 03:28:20;;;;;;;46.38;10.93;;;4.70;99.90;;;;;;5036271;28;20113;-65
2023/12/18 03:30:45;;;;;;;67.75;10.35;;;4.30;99.90;;;;;;5020600;28;20094;-65
2023/12/18 03:33:11;;;;;;;27.17;8.82;;;4.10;99.90;;;;;;5020333;28;20044;-65
2023/12/18 03:35:37;;;;;;;29.02;9.63;;;4.10;99.90;;;;;;5020187;28;20107;-65
2023/12/18 03:38:02;;;;;;;27.70;9.15;;;4.20;99.90;;;;;;5019362;28;20033;-65
2023/12/18 03:40:28;;;;;;;22.90;9.13;;;4.30;99.90;;;;;;5019229;28;20018;-65
2023/12/18 03:42:53;;;;;;;41.38;10.32;;;4.40;99.90;;;;;;5020241;28;20053;-65
2023/12/18 03:45:19;;;;;;;19.63;8.65;;;4.40;99.90;;;;;;5020305;28;20045;-65
2023/12/18 03:47:45;;;;;;;22.42;9.77;;;4.30;99.90;;;;;;5019103;28;20034;-65
2023/12/18 03:50:10;;;;;;;27.00;8.98;;;4.40;99.90;;;;;;5019460;28;20033;-66
2023/12/18 03:52:36;;;;;;;21.27;8.25;;;4.50;99.90;;;;;;5019385;28;20033;-65
2023/12/18 03:55:02;;;;;;;22.48;8.90;;;4.60;99.90;;;;;;5019859;28;20022;-65
2023/12/18 03:57:27;;;;;;;23.95;9.10;;;4.60;99.90;;;;;;5035446;28;20028;-65
2023/12/18 03:59:53;;;;;;;59.88;10.98;;;4.60;99.90;;;;;;5019726;28;20021;-65
2023/12/18 04:02:18;;;;;;;29.38;8.77;;;4.60;99.90;;;;;;5019759;28;20026;-65
2023/12/18 04:04:44;;;;;;;35.55;8.95;;;4.70;99.90;;;;;;5018810;28;20057;-65
2023/12/18 04:07:10;;;;;;;24.10;9.20;;;4.70;99.90;;;;;;5019851;28;20030;-65
2023/12/18 04:09:38;;;;;;;24.17;9.02;;;4.70;99.90;;;;;;5019582;28;20030;-65
2023/12/18 04:12:04;;;;;;;20.17;7.78;;;4.70;99.90;;;;;;5019015;28;20037;-65
2023/12/18 04:14:29;;;;;;;17.65;7.55;;;4.80;99.90;;;;;;5018535;28;20018;-65
2023/12/18 04:16:55;;;;;;;19.17;7.40;;;4.70;99.90;;;;;;5018865;28;20025;-65
2023/12/18 04:19:20;;;;;;;28.40;7.20;;;4.70;99.90;;;;;;5018572;28;20022;-65
2023/12/18 04:21:46;;;;;;;16.42;7.20;;;4.50;99.90;;;;;;5018453;28;20021;-65
2023/12/18 04:24:11;;;;;;;16.83;6.40;;;4.50;99.90;;;;;;5018380;28;20076;-65
2023/12/18 04:26:37;;;;;;;18.13;7.10;;;4.40;99.90;;;;;;5019289;28;20036;-65
2023/12/18 04:29:02;;;;;;;18.83;6.53;;;4.30;99.90;;;;;;5018285;28;20105;-65
2023/12/18 04:31:28;;;;;;;14.98;6.53;;;4.40;99.90;;;;;;5018618;28;20026;-65
2023/12/18 04:33:54;;;;;;;20.38;6.97;;;4.50;99.90;;;;;;5018137;28;20029;-65
2023/12/18 04:36:19;;;;;;;14.75;6.75;;;4.40;99.90;;;;;;5019233;28;20037;-65
2023/12/18 04:38:46;;;;;;;28.23;6.82;;;4.20;99.90;;;;;;5018182;28;20072;-66
2023/12/18 04:41:22;;;;;;;27.50;7.80;;;4.00;99.90;;;;;;5018921;28;20026;-65
2023/12/18 04:43:48;;;;;;;15.57;6.72;;;3.90;99.90;;;;;;5020056;28;20026;-65
2023/12/18 04:46:14;;;;;;;17.27;6.90;;;3.80;99.90;;;;;;5018828;28;20021;-65
2023/12/18 04:48:41;;;;;;;13.77;5.45;;;4.00;99.90;;;;;;5018252;28;20027;-65
2023/12/18 04:51:07;;;;;;;17.73;6.70;;;4.00;99.90;;;;;;5018727;28;20049;-65
2023/12/18 04:53:36;;;;;;;13.77;5.43;;;4.00;99.90;;;;;;5034249;28;20070;-65
2023/12/18 04:56:01;;;;;;;34.38;6.97;;;4.10;99.90;;;;;;5019282;28;20030;-65
2023/12/18 04:58:27;;;;;;;37.08;6.70;;;4.10;99.90;;;;;;5018719;28;20022;-65
2023/12/18 05:00:52;;;;;;;15.30;7.05;;;4.10;99.90;;;;;;5018232;28;20116;-65
2023/12/18 05:03:18;;;;;;;11.55;5.53;;;4.00;99.90;;;;;;5019004;28;20029;-65
2023/12/18 05:05:43;;;;;;;13.57;6.10;;;4.20;99.90;;;;;;5017584;28;20026;-65
2023/12/18 05:08:09;;;;;;;15.85;5.72;;;4.30;99.90;;;;;;5017657;28;20032;-65
2023/12/18 05:10:34;;;;;;;12.20;5.15;;;4.40;99.90;;;;;;5018028;28;20022;-65
2023/12/18 05:13:00;;;;;;;19.60;5.45;;;4.40;99.90;;;;;;5018637;28;20030;-65
2023/12/18 05:15:25;;;;;;;17.48;6.35;;;4.40;99.90;;;;;;5017723;28;20022;-65
2023/12/18 05:17:51;;;;;;;21.13;6.25;;;4.20;99.90;;;;;;5017690;28;20026;-65
2023/12/18 05:20:16;;;;;;;14.00;6.03;;;4.20;99.90;;;;;;5018646;28;20022;-65
2023/12/18 05:22:42;;;;;;;49.78;7.05;;;4.20;99.90;;;;;;5018253;28;20037;-65
2023/12/18 05:25:09;;;;;;;13.40;5.97;;;4.10;99.90;;;;;;5018151;28;20021;-65
2023/12/18 05:27:35;;;;;;;17.92;6.82;;;3.90;99.90;;;;;;5018162;28;20102;-65
2023/12/18 05:30:01;;;;;;;12.52;5.88;;;3.90;99.90;;;;;;5018066;28;20175;-65
2023/12/18 05:32:27;;;;;;;21.27;6.18;;;4.10;99.90;;;;;;5017042;28;20033;-65
2023/12/18 05:34:53;;;;;;;47.45;7.45;;;3.80;99.90;;;;;;5018249;28;20030;-65
2023/12/18 05:37:18;;;;;;;24.25;6.90;;;3.40;99.90;;;;;;5017839;28;20045;-65
2023/12/18 05:39:44;;;;;;;15.63;5.80;;;3.20;99.90;;;;;;5018227;28;20076;-65
2023/12/18 05:42:10;;;;;;;25.92;8.18;;;3.20;99.90;;;;;;5018217;28;20096;-65
2023/12/18 05:44:35;;;;;;;19.38;5.90;;;3.30;99.90;;;;;;5017737;28;20034;-65
2023/12/18 05:47:01;;;;;;;17.83;7.07;;;3.40;99.90;;;;;;5017009;28;20025;-65
2023/12/18 05:49:28;;;;;;;21.75;6.57;;;3.50;99.90;;;;;;5016800;28;20032;-65
2023/12/18 05:51:54;;;;;;;17.35;6.53;;;3.60;99.90;;;;;;5017859;28;20026;-65
2023/12/18 05:54:20;;;;;;;57.83;7.90;;;3.70;99.90;;;;;;5018168;28;20022;-65
2023/12/18 05:56:45;;;;;;;56.90;8.50;;;3.80;99.90;;;;;;5017093;28;20052;-65
2023/12/18 05:59:11;;;;;;;20.17;6.95;;;3.30;99.90;;;;;;5016743;28;20025;-65
2023/12/18 06:01:36;;;;;;;19.77;5.95;;;3.10;99.90;;;;;;5017301;28;20025;-65
2023/12/18 06:04:02;;;;;;;12.95;5.82;;;3.40;99.90;;;;;;5016782;28;20026;-65
2023/12/18 06:06:28;;;;;;;16.77;6.13;;;3.60;99.90;;;;;;5017095;28;20037;-65
2023/12/18 06:08:53;;;;;;;19.35;6.03;;;3.70;99.90;;;;;;5016627;28;20026;-65
2023/12/18 06:11:19;;;;;;;19.63;6.18;;;3.90;99.90;;;;;;5016883;28;20018;-65
2023/12/18 06:13:44;;;;;;;33.33;8.45;;;3.80;99.90;;;;;;5016625;28;20022;-65
2023/12/18 06:16:10;;;;;;;34.75;9.57;;;3.80;99.90;;;;;;5017413;28;20021;-64
2023/12/18 06:18:36;;;;;;;19.67;6.07;;;3.50;99.90;;;;;;5017061;28;20146;-65
2023/12/18 06:21:03;;;;;;;28.40;6.78;;;3.60;99.90;;;;;;5016561;28;20025;-65
2023/12/18 06:23:29;;;;;;;19.90;5.85;;;3.70;99.90;;;;;;5016532;28;20048;-65
2023/12/18 06:25:55;;;;;;;13.30;5.25;;;3.50;99.90;;;;;;5016709;28;20030;-65
2023/12/18 06:28:20;;;;;;;17.92;6.32;;;3.60;99.90;;;;;;5017201;28;20227;-65
2023/12/18 06:30:46;;;;;;;12.05;5.72;;;3.70;99.90;;;;;;5016414;28;20076;-65
2023/12/18 06:33:11;;;;;;;14.38;6.05;;;3.70;99.90;;;;;;5017318;28;20037;-65
2023/12/18 06:35:37;;;;;;;13.60;5.85;;;3.70;99.90;;;;;;5016596;28;20057;-65
2023/12/18 06:38:02;;;;;;;14.38;6.55;;;3.80;99.90;;;;;;5016733;28;20018;-65
2023/12/18 06:40:28;;;;;;;17.80;6.13;;;3.80;99.90;;;;;;5016183;28;20022;-65
2023/12/18 06:42:53;;;;;;;24.70;7.18;;;3.80;99.90;;;;;;5017097;28;20061;-65
2023/12/18 06:45:19;;;;;;;18.73;6.93;;;3.70;99.90;;;;;;5016241;28;20038;-65
2023/12/18 06:47:44;;;;;;;13.75;5.75;;;3.70;99.90;;;;;;5018412;28;20049;-65
2023/12/18 06:50:10;;;;;;;17.75;6.68;;;3.80;99.90;;;;;;5021093;28;20026;-62
2023/12/18 06:52:37;;;;;;;24.85;6.45;;;3.80;99.90;;;;;;5021121;28;20080;-62
2023/12/18 06:55:03;;;;;;;27.05;6.60;;;3.40;99.90;;;;;;5020953;28;20117;-62
2023/12/18 06:57:28;;;;;;;27.70;7.65;;;3.40;99.90;;;;;;5020147;28;20104;-62
2023/12/18 06:59:54;;;;;;;21.70;6.18;;;3.20;99.90;;;;;;5021453;28;20037;-62
2023/12/18 07:02:19;;;;;;;18.83;7.72;;;2.80;99.90;;;;;;5020149;28;20036;-62
2023/12/18 07:04:45;;;;;;;21.80;7.50;;;2.80;99.90;;;;;;5020649;28;20098;-62
2023/12/18 07:07:10;;;;;;;25.17;8.82;;;2.90;99.90;;;;;;5020106;28;20022;-62
2023/12/18 07:09:36;;;;;;;35.60;7.93;;;2.90;99.90;;;;;;5021108;28;20025;-62
2023/12/18 07:12:02;;;;;;;26.33;6.65;;;3.10;99.90;;;;;;5019678;28;20021;-62
2023/12/18 07:14:27;;;;;;;18.77;7.18;;;2.90;99.90;;;;;;5019728;28;20109;-62
2023/12/18 07:16:53;;;;;;;38.42;7.13;;;2.70;99.90;;;;;;5020622;28;20041;-62
2023/12/18 07:19:18;;;;;;;22.98;7.10;;;2.60;99.90;;;;;;5019743;28;20018;-62
2023/12/18 07:21:44;;;;;;;23.42;6.85;;;2.80;99.90;;;;;;5019561;28;20076;-63
2023/12/18 07:24:10;;;;;;;20.45;6.90;;;2.90;99.90;;;;;;5019932;28;20117;-62
2023/12/18 07:26:35;;;;;;;18.83;6.78;;;2.80;99.90;;;;;;5020389;28;20061;-62
2023/12/18 07:29:01;;;;;;;17.75;6.22;;;2.90;99.90;;;;;;5020940;28;20105;-62
2023/12/18 07:31:26;;;;;;;15.63;6.53;;;3.00;99.90;;;;;;5020796;28;20056;-65
2023/12/18 07:33:52;;;;;;;16.42;6.90;;;3.00;99.90;;;;;;5020254;28;20022;-65
2023/12/18 07:36:17;;;;;;;17.08;6.30;;;3.20;99.90;;;;;;5019426;28;20025;-65
2023/12/18 07:38:45;;;;;;;14.23;5.95;;;3.40;99.90;;;;;;5019374;28;20018;-65
2023/12/18 07:41:11;;;;;;;22.77;7.10;;;3.40;99.90;;;;;;5020359;28;20018;-65
2023/12/18 07:43:37;;;;;;;18.52;6.18;;;3.30;99.90;;;;;;5020274;28;20018;-65
2023/12/18 07:46:03;;;;;;;19.45;6.82;;;3.20;99.90;;;;;;5020088;28;20025;-65
2023/12/18 07:48:32;;;;;;;17.15;6.15;;;3.00;99.90;;;;;;5020067;28;20026;-65
2023/12/18 07:50:57;;;;;;;29.08;7.13;;;3.00;99.90;;;;;;5019894;28;20034;-65
2023/12/18 07:53:23;;;;;;;22.80;7.32;;;3.20;99.90;;;;;;5018911;28;20152;-65
2023/12/18 07:55:48;;;;;;;25.08;8.02;;;3.20;99.90;;;;;;5018970;28;20029;-65
2023/12/18 07:58:14;;;;;;;20.83;6.53;;;3.10;99.90;;;;;;5019627;28;20044;-65
2023/12/18 08:00:39;;;;;;;23.75;7.45;;;3.00;99.90;;;;;;5018915;28;20018;-65
2023/12/18 08:03:05;;;;;;;17.88;6.60;;;3.00;99.90;;;;;;5019760;28;20076;-65
2023/12/18 08:05:31;;;;;;;35.22;8.45;;;2.90;99.90;;;;;;5019647;28;20029;-65
2023/12/18 08:07:56;;;;;;;23.13;7.38;;;2.80;99.90;;;;;;5019734;28;20033;-65
2023/12/18 08:10:22;;;;;;;45.95;9.30;;;2.60;99.90;;;;;;5018676;28;20033;-65
2023/12/18 08:12:48;;;;;;;16.67;6.63;;;2.60;99.90;;;;;;5019736;28;20022;-65
2023/12/18 08:15:14;;;;;;;21.05;7.57;;;2.80;99.90;;;;;;5019570;28;20053;-65
2023/12/18 08:17:40;;;;;;;15.43;6.85;;;3.10;99.90;;;;;;5018594;28;20061;-65
2023/12/18 08:20:07;;;;;;;20.80;7.35;;;3.40;99.90;;;;;;5019821;28;20053;-65
2023/12/18 08:22:32;;;;;;;17.00;6.85;;;3.50;99.90;;;;;;5018482;28;20084;-65
2023/12/18 08:25:00;;;;;;;13.85;6.38;;;3.50;99.90;;;;;;5019332;28;20067;-65
2023/12/18 08:27:26;;;;;;;17.08;6.50;;;3.60;99.90;;;;;;5019373;28;20033;-65
2023/12/18 08:29:51;;;;;;;19.70;6.60;;;3.60;99.90;;;;;;5018425;28;20026;-65
2023/12/18 08:32:17;;;;;;;23.42;7.80;;;3.60;99.90;;;;;;5019476;28;20025;-65
2023/12/18 08:34:42;;;;;;;17.13;6.82;;;3.60;99.90;;;;;;5019107;28;20029;-65
2023/12/18 08:37:08;;;;;;;15.63;6.32;;;3.60;99.90;;;;;;5019441;28;20049;-65
2023/12/18 08:39:33;;;;;;;16.27;6.90;;;3.60;99.90;;;;;;5019207;28;20029;-65
2023/12/18 08:41:59;;;;;;;16.67;6.40;;;3.70;99.90;;;;;;5019571;28;20034;-64
2023/12/18 08:44:24;;;;;;;19.02;7.22;;;3.70;99.90;;;;;;5019099;28;20050;-70
2023/12/18 08:46:50;;;;;;;21.35;8.20;;;3.60;99.90;;;;;;5019041;28;20076;-71
2023/12/18 08:49:15;;;;;;;22.77;8.75;;;3.70;99.90;;;;;;5019066;28;20026;-70
2023/12/18 08:51:41;;;;;;;17.95;7.22;;;3.70;99.90;;;;;;5018828;28;20037;-71
2023/12/18 08:54:06;;;;;;;19.75;7.53;;;3.60;99.90;;;;;;5018170;28;20022;-71
2023/12/18 08:56:32;;;;;;;19.25;8.00;;;3.80;99.90;;;;;;5017948;28;20045;-71
2023/12/18 08:59:01;;;;;;;27.27;9.18;;;3.50;99.90;;;;;;5019082;28;20026;-70
2023/12/18 09:01:26;;;;;;;21.38;6.88;;;2.90;99.90;;;;;;5017652;28;20018;-71
2023/12/18 09:03:52;;;;;;;25.00;9.40;;;2.90;99.90;;;;;;5018082;28;20033;-70
2023/12/18 09:06:17;;;;;;;24.45;9.07;;;2.90;99.90;;;;;;5018621;28;20053;-70
2023/12/18 09:08:43;;;;;;;21.63;6.80;;;2.60;99.90;;;;;;5018459;28;20022;-70
2023/12/18 09:11:09;;;;;;;36.65;9.50;;;2.60;99.90;;;;;;5017015;28;20022;-70
2023/12/18 09:13:36;;;;;;;23.00;8.60;;;2.60;99.90;;;;;;5018282;28;20038;-70
2023/12/18 09:16:02;;;;;;;20.52;7.15;;;2.60;99.90;;;;;;5017570;28;20109;-70
2023/12/18 09:18:28;;;;;;;23.02;8.15;;;2.70;99.90;;;;;;5017998;28;20048;-70
2023/12/18 09:20:53;;;;;;;21.75;8.45;;;2.40;99.90;;;;;;5017685;28;20022;-70
2023/12/18 09:23:19;;;;;;;20.85;8.35;;;2.40;99.90;;;;;;5018611;28;20105;-70
2023/12/18 09:25:44;;;;;;;25.88;8.98;;;2.30;99.90;;;;;;5017567;28;20033;-71
2023/12/18 09:28:10;;;;;;;26.23;8.50;;;2.30;99.90;;;;;;5017418;28;20033;-71
2023/12/18 09:30:35;;;;;;;19.83;7.97;;;2.40;99.90;;;;;;5018267;28;20033;-71
2023/12/18 09:33:01;;;;;;;20.13;7.57;;;2.80;99.90;;;;;;5018217;28;20026;-72
2023/12/18 09:35:27;;;;;;;17.58;7.75;;;3.20;99.90;;;;;;5017415;28;20029;-72
2023/12/18 09:37:53;;;;;;;14.48;7.85;;;3.40;99.90;;;;;;5017265;28;20017;-71
2023/12/18 09:40:18;;;;;;;24.92;8.38;;;3.50;99.90;;;;;;5017027;28;20025;-71
2023/12/18 09:42:52;;;;;;;21.00;8.68;;;3.50;99.90;;;;;;5017158;28;20029;-71
2023/12/18 09:45:21;;;;;;;18.83;7.13;;;3.50;99.90;;;;;;5017898;28;20030;-71
2023/12/18 09:47:47;;;;;;;23.67;8.25;;;3.70;99.90;;;;;;5017682;28;20087;-71
2023/12/18 09:50:12;;;;;;;21.52;9.43;;;3.70;99.90;;;;;;5017897;28;20112;-72
2023/12/18 09:52:42;;;;;;;20.52;7.28;;;3.70;99.90;;;;;;5033225;28;20033;-72
2023/12/18 09:55:08;;;;;;;22.33;8.15;;;3.60;99.90;;;;;;5017866;28;20025;-72
2023/12/18 09:57:34;;;;;;;16.50;7.32;;;3.80;99.90;;;;;;5017573;28;20022;-72
2023/12/18 10:00:00;;;;;;;15.27;7.00;;;3.90;99.90;;;;;;5017653;28;20029;-71
2023/12/18 10:02:27;;;;;;;22.55;7.95;;;3.70;99.90;;;;;;5017293;28;20112;-71
2023/12/18 10:04:52;;;;;;;20.05;7.43;;;3.60;99.90;;;;;;5016664;28;20064;-72
2023/12/18 10:07:18;;;;;;;25.00;7.07;;;3.60;99.90;;;;;;5017056;28;20025;-72
2023/12/18 10:09:43;;;;;;;18.75;8.00;;;3.80;99.90;;;;;;5017744;28;20026;-72
2023/12/18 10:12:09;;;;;;;22.55;8.63;;;3.80;99.90;;;;;;5017538;28;20052;-72
2023/12/18 10:14:34;;;;;;;22.33;8.18;;;3.90;99.90;;;;;;5016613;28;20049;-71
2023/12/18 10:17:00;;;;;;;18.30;8.20;;;4.00;99.90;;;;;;5016836;28;20120;-71
2023/12/18 10:19:27;;;;;;;22.77;8.32;;;4.00;99.90;;;;;;5016840;28;20076;-71
2023/12/18 10:21:54;;;;;;;20.00;8.02;;;3.90;99.90;;;;;;5017057;28;20117;-71
2023/12/18 10:24:20;;;;;;;22.15;9.23;;;3.80;99.90;;;;;;5017151;28;20100;-71
2023/12/18 10:26:48;;;;;;;20.33;7.60;;;3.50;99.90;;;;;;5017436;28;20061;-71
2023/12/18 10:29:14;;;;;;;27.02;8.75;;;3.60;99.90;;;;;;5017268;28;20138;-71
2023/12/18 10:31:40;;;;;;;23.88;8.90;;;3.70;99.90;;;;;;5016295;28;20033;-71
2023/12/18 10:34:06;;;;;;;19.38;8.90;;;3.80;99.90;;;;;;5016559;28;20025;-71
2023/12/18 10:36:33;;;;;;;19.33;8.45;;;3.90;99.90;;;;;;5016264;28;20018;-65
2023/12/18 10:39:01;;;;;;;21.48;8.60;;;4.00;99.90;;;;;;5017314;28;20022;-71
2023/12/18 10:41:29;;;;;;;19.30;8.52;;;3.80;99.90;;;;;;5018736;28;20018;-65
2023/12/18 10:43:56;;;;;;;22.92;8.63;;;3.70;99.90;;;;;;5016933;28;20030;-65
2023/12/18 10:46:24;;;;;;;19.15;8.45;;;3.80;99.90;;;;;;5016300;28;20073;-65
2023/12/18 10:48:52;;;;;;;23.63;8.93;;;3.30;99.90;;;;;;5016565;28;20021;-66
2023/12/18 10:51:20;;;;;;;21.17;8.45;;;3.00;99.90;;;;;;5017072;28;20076;-65
2023/12/18 10:53:48;;;;;;;38.95;10.30;;;3.30;99.90;;;;;;5016920;28;20026;-71
2023/12/18 10:56:16;;;;;;;23.17;8.10;;;3.30;99.90;;;;;;5016242;28;20025;-67
2023/12/18 10:58:42;;;;;;;18.80;8.10;;;3.60;99.90;;;;;;5016943;28;20025;-67
2023/12/18 11:01:09;;;;;;;22.67;8.57;;;3.50;99.90;;;;;;5017313;28;20025;-71
2023/12/18 11:03:36;;;;;;;21.75;9.55;;;3.50;99.90;;;;;;5017502;28;20119;-71
2023/12/18 11:06:02;;;;;;;23.42;9.18;;;3.60;99.90;;;;;;5016073;28;20022;-71
2023/12/18 11:08:28;;;;;;;21.40;8.73;;;3.70;99.90;;;;;;5017219;28;20037;-71
2023/12/18 11:10:58;;;;;;;25.13;8.75;;;3.90;99.90;;;;;;5016916;28;20030;-71
2023/12/18 11:13:43;;;;;;;18.73;9.02;;;3.90;99.90;;;;;;5016070;28;20046;-71
2023/12/18 11:16:15;;;;;;;21.25;8.20;;;3.90;99.90;;;;;;5016412;28;20080;-71
2023/12/18 11:19:09;;;;;;;24.20;9.95;;;3.90;99.90;;;;;;5016919;28;20109;-67
2023/12/18 11:21:34;;;;;;;20.05;8.35;;;3.80;99.90;;;;;;5017136;28;20026;-71
2023/12/18 11:24:01;;;;;;;21.77;9.05;;;4.00;99.90;;;;;;5032262;28;20028;-71
2023/12/18 11:26:29;;;;;;;15.85;7.65;;;4.00;99.90;;;;;;5015797;28;20022;-71
2023/12/18 11:29:03;;;;;;;20.17;8.57;;;4.10;99.90;;;;;;5033398;28;20113;-65
2023/12/18 11:31:29;;;;;;;24.75;8.77;;;4.20;99.90;;;;;;5015652;28;20033;-66
2023/12/18 11:34:02;;;;;;;21.85;8.27;;;4.20;99.90;;;;;;5033573;28;20037;-67
2023/12/18 11:36:28;;;;;;;21.40;9.13;;;4.20;99.90;;;;;;5020249;28;20026;-67
2023/12/18 11:38:57;;;;;;;19.58;7.55;;;4.10;99.90;;;;;;5020169;28;20064;-67
2023/12/18 11:41:44;;;;;;;17.80;7.60;;;4.00;99.90;;;;;;5020188;28;20081;-67
2023/12/18 11:44:14;;;;;;;22.67;9.38;;;4.00;99.90;;;;;;5019085;28;20036;-66
2023/12/18 11:46:41;;;;;;;25.67;9.13;;;4.00;99.90;;;;;;5019361;28;20022;-65
2023/12/18 11:49:08;;;;;;;23.02;9.35;;;4.10;99.90;;;;;;5019974;28;20049;-65
2023/12/18 11:51:34;;;;;;;27.15;10.25;;;4.10;99.90;;;;;;5019924;28;20108;-65
2023/12/18 11:54:02;;;;;;;24.38;9.68;;;3.80;99.90;;;;;;5019835;28;20014;-70
2023/12/18 11:56:39;;;;;;;27.52;10.95;;;3.30;99.90;;;;;;5035451;28;20022;-71
2023/12/18 11:59:06;;;;;;;22.42;8.98;;;3.30;99.90;;;;;;5020096;28;20060;-71
2023/12/18 12:01:31;;;;;;;28.05;11.18;;;3.10;99.90;;;;;;5020129;28;20021;-70
2023/12/18 12:03:58;;;;;;;26.60;10.30;;;3.40;99.90;;;;;;5035227;28;20026;-71
2023/12/18 12:06:24;;;;;;;23.55;9.60;;;3.70;99.90;;;;;;5035461;28;20022;-65
2023/12/18 12:08:50;;;;;;;24.45;9.70;;;3.70;99.90;;;;;;5019960;28;20032;-65
2023/12/18 12:11:19;;;;;;;23.70;10.00;;;3.70;99.90;;;;;;5019677;28;20018;-65
2023/12/18 12:13:47;;;;;;;33.88;12.23;;;3.30;99.90;;;;;;5035089;28;20084;-70
2023/12/18 12:16:17;;;;;;;33.53;11.43;;;3.00;99.90;;;;;;5019796;28;20028;-65
2023/12/18 12:18:50;;;;;;;24.48;10.52;;;3.00;99.90;;;;;;5019587;28;20022;-65
2023/12/18 12:21:17;;;;;;;26.92;10.93;;;2.90;99.90;;;;;;5019921;28;20026;-65
2023/12/18 12:23:44;;;;;;;23.08;9.93;;;3.00;99.90;;;;;;5019457;28;20028;-70
2023/12/18 12:26:10;;;;;;;26.77;10.50;;;3.30;99.90;;;;;;5019364;28;20034;-66
2023/12/18 12:28:36;;;;;;;24.52;10.48;;;3.30;99.90;;;;;;5018434;28;20133;-70
2023/12/18 12:31:03;;;;;;;28.50;12.02;;;3.70;99.90;;;;;;5035304;28;20034;-70
2023/12/18 12:33:41;;;;;;;26.48;10.68;;;3.70;99.90;;;;;;5019126;28;20058;-70
2023/12/18 12:36:07;;;;;;;25.20;10.93;;;3.40;99.90;;;;;;5019128;28;20105;-70
2023/12/18 12:38:42;;;;;;;28.25;11.15;;;3.10;99.90;;;;;;5019192;28;20049;-70